Culdrose, United Kingdom
Current Conditions -  °F | °C
As of 4:50 AM on Tuesday 21 Oct 2014 (Local Time) from EGDR Reporting Station
Drizzle Drizzle  
Wind Chill: 57°   Ceiling: 500
Heat Index: 57°   Visibility: 1.5mi
Dew Point: 55°   Wind: 21mph
Humidity: 94%   Direction: 240°WSW
Pressure: 29.77"   Gusts: 41mph
Location:  50.08°N, 5.25°W
Report Text: EGDR 210350Z 24018G36KT 2500 -DZ FEW003 BKN005 OVC012 14/13 Q1008 YLO1
Loading
Personal Weather Stations






























Interactive Weather Map
Tropical Storm Tracking
New forecast layout! Learn more

10-Day Weather Forecast

Advertisements
Track Severe Weather on mobile